createdAt,value
2023-04-09T00:00:43.831Z,7.50
2023-04-09T00:03:11.636Z,7.77
2023-04-09T00:05:40.782Z,8.17
2023-04-09T00:08:08.626Z,7.50
2023-04-09T00:10:36.329Z,7.63
2023-04-09T00:13:03.955Z,6.97
2023-04-09T00:15:32.941Z,7.33
2023-04-09T00:18:00.702Z,7.17
2023-04-09T00:20:28.331Z,7.90
2023-04-09T00:22:56.501Z,7.63
2023-04-09T00:25:24.168Z,7.73
2023-04-09T00:27:51.763Z,7.97
2023-04-09T00:30:19.343Z,7.83
2023-04-09T00:32:48.739Z,8.87
2023-04-09T00:35:17.502Z,7.33
2023-04-09T00:37:45.390Z,8.23
2023-04-09T00:40:13.052Z,7.83
2023-04-09T00:42:41.588Z,9.33
2023-04-09T00:45:10.046Z,7.20
2023-04-09T00:47:37.830Z,8.33
2023-04-09T00:50:07.743Z,8.20
2023-04-09T00:52:35.456Z,8.83
2023-04-09T00:55:05.962Z,8.00
2023-04-09T00:57:33.592Z,10.27
2023-04-09T01:00:01.247Z,10.03
2023-04-09T01:02:30.974Z,10.07
2023-04-09T01:04:59.204Z,9.53
2023-04-09T01:07:40.720Z,9.93
2023-04-09T01:10:18.345Z,8.80
2023-04-09T01:12:55.673Z,9.03
2023-04-09T01:15:27.385Z,7.73
2023-04-09T01:18:04.034Z,8.70
2023-04-09T01:20:36.636Z,7.03
2023-04-09T01:23:17.459Z,6.70
2023-04-09T01:25:52.683Z,6.80
2023-04-09T01:28:24.859Z,6.60
2023-04-09T01:30:57.266Z,6.37
2023-04-09T01:33:26.290Z,6.10
2023-04-09T01:35:54.961Z,6.00
2023-04-09T01:38:24.096Z,5.73
2023-04-09T01:40:53.768Z,5.67
2023-04-09T01:43:23.422Z,6.00
2023-04-09T01:45:52.478Z,5.40
2023-04-09T01:48:21.665Z,6.20
2023-04-09T01:50:50.322Z,5.97
2023-04-09T01:53:18.107Z,6.23
2023-04-09T01:55:45.891Z,6.40
2023-04-09T01:58:13.514Z,7.07
2023-04-09T02:00:48.395Z,7.07
2023-04-09T02:03:19.726Z,7.53
2023-04-09T02:05:52.212Z,7.57
2023-04-09T02:08:23.064Z,7.50
2023-04-09T02:10:55.313Z,6.83
2023-04-09T02:13:25.863Z,7.70
2023-04-09T02:15:57.643Z,7.83
2023-04-09T02:18:27.318Z,8.83
2023-04-09T02:20:55.488Z,8.13
2023-04-09T02:23:23.481Z,8.63
2023-04-09T02:25:53.080Z,10.13
2023-04-09T02:28:20.779Z,9.40
2023-04-09T02:30:48.446Z,8.93
2023-04-09T02:33:17.682Z,9.83
2023-04-09T02:35:45.278Z,9.97
2023-04-09T02:38:13.847Z,9.57
2023-04-09T02:40:42.122Z,9.83
2023-04-09T02:43:10.026Z,9.63
2023-04-09T02:45:37.871Z,10.97
2023-04-09T02:48:05.747Z,9.67
2023-04-09T02:50:37.402Z,8.63
2023-04-09T02:53:05.066Z,9.70
2023-04-09T02:55:32.957Z,9.00
2023-04-09T02:58:00.616Z,7.87
2023-04-09T03:00:28.292Z,8.60
2023-04-09T03:02:56.588Z,8.93
2023-04-09T03:05:24.469Z,7.90
2023-04-09T03:07:53.375Z,8.93
2023-04-09T03:10:20.964Z,7.60
2023-04-09T03:12:48.561Z,8.73
2023-04-09T03:15:16.995Z,8.27
2023-04-09T03:17:44.747Z,8.00
2023-04-09T03:20:12.427Z,6.93
2023-04-09T03:22:40.948Z,6.77
2023-04-09T03:25:21.911Z,7.33
2023-04-09T03:27:53.269Z,7.13
2023-04-09T03:30:30.576Z,6.37
2023-04-09T03:32:59.543Z,6.90
2023-04-09T03:35:28.963Z,6.07
2023-04-09T03:37:59.937Z,6.83
2023-04-09T03:40:29.046Z,6.80
2023-04-09T03:42:57.205Z,5.47
2023-04-09T03:45:24.852Z,7.13
2023-04-09T03:47:57.475Z,6.53
2023-04-09T03:50:26.440Z,7.13
2023-04-09T03:52:56.747Z,6.83
2023-04-09T03:55:25.266Z,6.43
2023-04-09T03:57:54.856Z,7.90
2023-04-09T04:00:28.179Z,7.17
2023-04-09T04:03:16.510Z,7.13
2023-04-09T04:06:03.335Z,7.53
2023-04-09T04:08:39.895Z,8.00
2023-04-09T04:11:07.799Z,7.90
2023-04-09T04:13:36.959Z,10.17
2023-04-09T04:16:10.081Z,11.23
2023-04-09T04:18:39.869Z,11.17
2023-04-09T04:21:13.852Z,11.03
2023-04-09T04:23:45.293Z,11.37
2023-04-09T04:26:18.820Z,10.17
2023-04-09T04:28:48.458Z,9.87
2023-04-09T04:31:27.351Z,9.10
2023-04-09T04:33:58.874Z,9.10
2023-04-09T04:36:27.189Z,10.60
2023-04-09T04:38:54.926Z,10.13
2023-04-09T04:41:37.819Z,10.83
2023-04-09T04:44:21.058Z,11.27
2023-04-09T04:46:52.930Z,9.47
2023-04-09T04:49:20.515Z,10.07
2023-04-09T04:51:49.091Z,11.27
2023-04-09T04:54:17.344Z,11.30
2023-04-09T04:56:52.420Z,10.13
2023-04-09T04:59:33.908Z,10.80
2023-04-09T05:02:06.464Z,9.63
2023-04-09T05:04:42.941Z,8.40
2023-04-09T05:07:13.922Z,9.60
2023-04-09T05:09:49.103Z,9.00
2023-04-09T05:12:17.969Z,10.23
2023-04-09T05:14:50.796Z,11.00
2023-04-09T05:17:18.694Z,11.53
2023-04-09T05:19:52.128Z,13.57
2023-04-09T05:22:23.264Z,13.13
2023-04-09T05:24:51.436Z,11.70
2023-04-09T05:27:19.432Z,11.50
2023-04-09T05:29:51.157Z,11.97
2023-04-09T05:32:18.838Z,11.20
2023-04-09T05:34:47.264Z,10.50
2023-04-09T05:37:16.139Z,10.40
2023-04-09T05:39:49.095Z,9.90
2023-04-09T05:42:17.901Z,10.23
2023-04-09T05:44:58.021Z,9.77
2023-04-09T05:47:25.755Z,9.87
2023-04-09T05:50:02.036Z,9.50
2023-04-09T05:52:30.059Z,10.60
2023-04-09T05:54:58.548Z,10.30
2023-04-09T05:57:41.737Z,10.60
2023-04-09T06:00:11.879Z,11.27
2023-04-09T06:02:46.139Z,12.60
2023-04-09T06:05:14.211Z,13.00
2023-04-09T06:07:41.892Z,12.80
2023-04-09T06:10:10.375Z,14.23
2023-04-09T06:12:38.031Z,14.07
2023-04-09T06:15:06.570Z,14.77
2023-04-09T06:17:35.575Z,14.60
2023-04-09T06:20:03.861Z,15.80
2023-04-09T06:22:31.449Z,15.57
2023-04-09T06:24:59.069Z,16.67
2023-04-09T06:27:26.678Z,14.53
2023-04-09T06:29:54.360Z,14.63
2023-04-09T06:32:22.051Z,13.80
2023-04-09T06:34:51.001Z,14.93
2023-04-09T06:37:18.568Z,13.77
2023-04-09T06:40:00.004Z,14.23
2023-04-09T06:42:28.843Z,15.10
2023-04-09T06:45:10.620Z,16.80
2023-04-09T06:47:38.244Z,19.57
2023-04-09T06:50:08.766Z,19.60
2023-04-09T06:52:36.350Z,19.43
2023-04-09T06:55:04.083Z,18.73
2023-04-09T06:57:31.695Z,17.47
2023-04-09T06:59:59.326Z,16.93
2023-04-09T07:02:27.759Z,15.70
2023-04-09T07:04:55.628Z,17.53
2023-04-09T07:07:25.843Z,16.67
2023-04-09T07:09:54.039Z,16.33
2023-04-09T07:12:27.761Z,15.87
2023-04-09T07:14:58.762Z,15.13
2023-04-09T07:17:26.394Z,15.70
2023-04-09T07:19:54.397Z,15.57
2023-04-09T07:22:23.660Z,14.70
2023-04-09T07:24:54.378Z,15.10
2023-04-09T07:27:22.323Z,15.20
2023-04-09T07:29:50.089Z,17.07
2023-04-09T07:32:18.021Z,17.23
2023-04-09T07:34:45.734Z,16.90
2023-04-09T07:37:13.445Z,15.30
2023-04-09T07:39:42.633Z,15.53
2023-04-09T07:42:10.316Z,15.00
2023-04-09T07:44:38.769Z,14.50
2023-04-09T07:47:08.748Z,14.57
2023-04-09T07:49:37.899Z,14.40
2023-04-09T07:52:06.472Z,16.87
2023-04-09T07:54:35.242Z,23.77
2023-04-09T07:57:04.477Z,23.77
2023-04-09T07:59:32.121Z,22.83
2023-04-09T08:01:59.962Z,24.43
2023-04-09T08:04:28.727Z,25.73
2023-04-09T08:06:56.523Z,25.53
2023-04-09T08:09:24.140Z,24.60
2023-04-09T08:11:51.766Z,23.30
2023-04-09T08:14:21.262Z,22.00
2023-04-09T08:16:50.122Z,20.57
2023-04-09T08:19:19.128Z,20.30
2023-04-09T08:21:48.949Z,19.20
2023-04-09T08:24:16.881Z,21.83
2023-04-09T08:26:44.832Z,20.97
2023-04-09T08:29:13.989Z,20.00
2023-04-09T08:31:43.217Z,18.33
2023-04-09T08:34:10.931Z,23.27
2023-04-09T08:36:38.547Z,29.10
2023-04-09T08:39:06.168Z,27.03
2023-04-09T08:41:34.137Z,26.53
2023-04-09T08:44:02.011Z,26.73
2023-04-09T08:46:29.744Z,27.23
2023-04-09T08:48:59.062Z,26.57
2023-04-09T08:51:28.652Z,26.37
2023-04-09T08:53:58.369Z,24.77
2023-04-09T08:56:27.101Z,25.80
2023-04-09T08:58:56.187Z,26.70
2023-04-09T09:03:14.662Z,24.50
2023-04-09T09:05:45.764Z,24.13
2023-04-09T09:08:25.246Z,20.20
2023-04-09T09:10:55.156Z,19.30
2023-04-09T09:13:26.328Z,18.30
2023-04-09T09:15:56.484Z,19.00
2023-04-09T09:18:40.440Z,21.50
2023-04-09T09:21:12.031Z,22.70
2023-04-09T09:23:40.291Z,21.63
2023-04-09T09:26:13.916Z,19.73
2023-04-09T09:28:42.423Z,23.43
2023-04-09T09:31:10.994Z,22.40
2023-04-09T09:33:40.825Z,21.50
2023-04-09T09:36:09.425Z,20.20
2023-04-09T09:38:53.119Z,22.57
2023-04-09T09:41:22.383Z,19.27
2023-04-09T09:43:50.492Z,18.87
2023-04-09T09:46:18.878Z,17.33
2023-04-09T09:48:47.958Z,17.97
2023-04-09T09:51:17.379Z,20.87
2023-04-09T09:53:49.109Z,20.93
2023-04-09T09:56:22.519Z,18.73
2023-04-09T09:58:54.306Z,16.83
2023-04-09T10:01:24.877Z,19.17
2023-04-09T10:03:54.636Z,20.40
2023-04-09T10:06:25.212Z,19.37
2023-04-09T10:08:53.643Z,21.70
2023-04-09T10:11:21.424Z,20.70
2023-04-09T10:13:53.897Z,20.00
2023-04-09T10:16:23.211Z,19.93
2023-04-09T10:18:51.629Z,19.17
2023-04-09T10:21:32.163Z,18.63
2023-04-09T10:24:00.195Z,17.97
2023-04-09T10:26:30.755Z,17.27
2023-04-09T10:29:08.933Z,18.27
2023-04-09T10:31:52.908Z,23.37
2023-04-09T10:34:23.466Z,21.50
2023-04-09T10:36:55.510Z,19.20
2023-04-09T10:39:27.592Z,20.00
2023-04-09T10:41:56.106Z,22.27
2023-04-09T10:44:26.386Z,21.90
2023-04-09T10:46:56.187Z,23.37
2023-04-09T10:49:26.489Z,24.27
2023-04-09T10:52:02.431Z,23.60
2023-04-09T10:54:46.116Z,22.63
2023-04-09T10:57:19.194Z,22.87
2023-04-09T10:59:48.432Z,21.40
2023-04-09T11:02:46.171Z,20.03
2023-04-09T11:05:22.771Z,21.77
2023-04-09T11:07:58.414Z,22.43
2023-04-09T11:10:26.807Z,20.73
2023-04-09T11:12:54.786Z,20.80
2023-04-09T11:15:22.859Z,21.83
2023-04-09T11:17:51.201Z,20.50
2023-04-09T11:20:22.177Z,19.17
2023-04-09T11:22:52.279Z,19.50
2023-04-09T11:25:21.037Z,20.87
2023-04-09T11:27:48.909Z,21.53
2023-04-09T11:30:16.592Z,21.53
2023-04-09T11:32:44.516Z,22.30
2023-04-09T11:35:14.202Z,20.20
2023-04-09T11:37:42.998Z,18.67
2023-04-09T11:40:17.880Z,21.80
2023-04-09T11:42:46.090Z,21.10
2023-04-09T11:45:14.409Z,18.53
2023-04-09T11:47:42.685Z,16.60
2023-04-09T11:50:11.774Z,14.47
2023-04-09T11:52:40.214Z,16.13
2023-04-09T11:55:09.034Z,16.57
2023-04-09T11:57:47.155Z,15.90
2023-04-09T12:00:17.012Z,15.90
2023-04-09T12:02:47.331Z,15.73
2023-04-09T12:05:23.931Z,15.70
2023-04-09T12:07:56.312Z,15.67
2023-04-09T12:10:29.973Z,14.60
2023-04-09T12:13:05.380Z,15.57
2023-04-09T12:15:34.719Z,18.97
2023-04-09T12:18:02.568Z,18.67
2023-04-09T12:20:32.522Z,16.90
2023-04-09T12:23:03.455Z,19.37
2023-04-09T12:25:32.007Z,19.03
2023-04-09T12:27:59.859Z,18.90
2023-04-09T12:30:28.957Z,18.17
2023-04-09T12:32:57.319Z,18.77
2023-04-09T12:35:25.199Z,17.47
2023-04-09T12:37:52.870Z,15.83
2023-04-09T12:40:22.539Z,15.27
2023-04-09T12:42:51.779Z,18.37
2023-04-09T12:45:20.923Z,15.93
2023-04-09T12:47:51.184Z,14.17
2023-04-09T12:50:18.851Z,14.07
2023-04-09T12:52:46.921Z,15.27
2023-04-09T12:55:15.566Z,17.50
2023-04-09T12:57:45.475Z,16.10
2023-04-09T13:00:14.325Z,14.70
2023-04-09T13:02:42.363Z,15.70
2023-04-09T13:05:12.892Z,14.17
2023-04-09T13:07:42.913Z,11.90
2023-04-09T13:10:11.382Z,17.13
2023-04-09T13:12:39.032Z,14.83
2023-04-09T13:15:07.838Z,13.20
2023-04-09T13:17:35.652Z,12.20
2023-04-09T13:20:03.759Z,10.30
2023-04-09T13:22:32.741Z,11.20
2023-04-09T13:25:00.336Z,13.27
2023-04-09T13:27:27.980Z,13.20
2023-04-09T13:29:55.547Z,13.03
2023-04-09T13:32:24.218Z,11.03
2023-04-09T13:34:53.686Z,9.70
2023-04-09T13:37:21.488Z,13.40
2023-04-09T13:39:50.546Z,13.73
2023-04-09T13:42:18.412Z,13.90
2023-04-09T13:44:46.212Z,12.13
2023-04-09T13:47:15.038Z,13.27
2023-04-09T13:49:43.390Z,14.47
2023-04-09T13:52:11.650Z,14.97
2023-04-09T13:54:39.336Z,12.73
2023-04-09T13:57:08.266Z,11.37
2023-04-09T13:59:36.101Z,13.80
2023-04-09T14:02:03.781Z,13.20
2023-04-09T14:04:31.520Z,11.90
2023-04-09T14:06:59.208Z,11.57
2023-04-09T14:09:26.828Z,11.70
2023-04-09T14:11:56.169Z,15.20
2023-04-09T14:14:25.271Z,12.97
2023-04-09T14:16:53.405Z,14.10
2023-04-09T14:19:21.346Z,11.93
2023-04-09T14:21:49.374Z,12.23
2023-04-09T14:24:17.057Z,10.27
2023-04-09T14:26:45.042Z,12.47
2023-04-09T14:29:12.666Z,11.40
2023-04-09T14:31:42.810Z,10.03
2023-04-09T14:34:10.542Z,9.80
2023-04-09T14:36:38.165Z,10.73
2023-04-09T14:39:05.969Z,10.53
2023-04-09T14:41:36.582Z,11.80
2023-04-09T14:44:04.373Z,10.50
2023-04-09T14:46:32.021Z,12.93
2023-04-09T14:49:00.985Z,12.90
2023-04-09T14:51:30.444Z,11.07
2023-04-09T14:53:58.443Z,10.83
2023-04-09T14:56:26.091Z,11.00
2023-04-09T14:58:54.144Z,12.17
2023-04-09T15:01:22.596Z,12.53
2023-04-09T15:03:50.684Z,11.57
2023-04-09T15:06:19.963Z,11.50
2023-04-09T15:08:47.604Z,12.50
2023-04-09T15:11:17.017Z,12.20
2023-04-09T15:13:44.893Z,10.53
2023-04-09T15:16:12.726Z,9.70
2023-04-09T15:18:40.445Z,10.67
2023-04-09T15:21:08.238Z,9.93
2023-04-09T15:23:37.155Z,8.23
2023-04-09T15:26:05.003Z,7.43
2023-04-09T15:28:32.616Z,9.90
2023-04-09T15:31:00.288Z,8.77
2023-04-09T15:33:28.035Z,8.43
2023-04-09T15:35:55.810Z,7.50
2023-04-09T15:38:25.136Z,9.43
2023-04-09T15:40:56.030Z,10.20
2023-04-09T15:43:23.993Z,10.07
2023-04-09T15:45:52.128Z,9.10
2023-04-09T15:48:20.196Z,9.63
2023-04-09T15:50:47.782Z,9.83
2023-04-09T15:53:15.945Z,8.30
2023-04-09T15:55:43.523Z,8.30
2023-04-09T15:58:12.632Z,7.40
2023-04-09T16:00:40.584Z,6.80
2023-04-09T16:03:08.200Z,8.50
2023-04-09T16:05:36.051Z,7.70
2023-04-09T16:08:03.614Z,6.77
2023-04-09T16:10:31.964Z,6.13
2023-04-09T16:12:59.623Z,6.30
2023-04-09T16:15:28.932Z,6.03
2023-04-09T16:17:56.670Z,6.50
2023-04-09T16:20:24.504Z,7.53
2023-04-09T16:22:52.147Z,7.30
2023-04-09T16:25:19.755Z,6.63
2023-04-09T16:27:47.314Z,5.87
2023-04-09T16:30:14.908Z,6.40
2023-04-09T16:32:43.897Z,6.50
2023-04-09T16:35:11.489Z,6.13
2023-04-09T16:37:39.418Z,5.30
2023-04-09T16:40:08.415Z,4.93
2023-04-09T16:42:36.699Z,5.50
2023-04-09T16:45:04.651Z,5.50
2023-04-09T16:47:32.752Z,5.33
2023-04-09T16:50:02.939Z,5.00
2023-04-09T16:52:30.675Z,4.97
2023-04-09T16:54:58.913Z,4.73
2023-04-09T16:57:26.493Z,4.80
2023-04-09T16:59:54.177Z,4.03
2023-04-09T17:02:23.868Z,4.87
2023-04-09T17:04:51.863Z,4.60
2023-04-09T17:07:21.826Z,4.93
2023-04-09T17:09:49.458Z,5.27
2023-04-09T17:12:18.235Z,5.20
2023-04-09T17:14:45.975Z,5.00
2023-04-09T17:17:13.577Z,5.70
2023-04-09T17:19:42.805Z,5.73
2023-04-09T17:22:10.713Z,5.73
2023-04-09T17:24:39.769Z,5.40
2023-04-09T17:27:07.371Z,5.50
2023-04-09T17:29:35.191Z,5.77
2023-04-09T17:32:02.777Z,6.50
2023-04-09T17:34:30.405Z,7.20
2023-04-09T17:36:59.912Z,6.50
2023-04-09T17:39:29.240Z,5.97
2023-04-09T17:42:00.484Z,5.67
2023-04-09T17:44:28.133Z,6.80
2023-04-09T17:46:55.729Z,7.30
2023-04-09T17:49:23.312Z,9.07
2023-04-09T17:51:51.283Z,10.27
2023-04-09T17:54:18.915Z,12.60
2023-04-09T17:56:46.950Z,16.37
2023-04-09T17:59:15.910Z,19.33
2023-04-09T18:01:43.610Z,23.80
2023-04-09T18:04:11.848Z,26.07
2023-04-09T18:06:39.568Z,29.10
2023-04-09T18:09:07.581Z,30.23
2023-04-09T18:11:35.187Z,31.77
2023-04-09T18:14:07.778Z,33.87
2023-04-09T18:16:38.113Z,35.47
2023-04-09T18:19:06.087Z,34.77
2023-04-09T18:21:36.319Z,34.70
2023-04-09T18:24:04.672Z,35.47
2023-04-09T18:26:33.738Z,35.10
2023-04-09T18:29:01.835Z,34.40
2023-04-09T18:31:29.560Z,35.97
2023-04-09T18:33:58.502Z,33.23
2023-04-09T18:36:28.203Z,33.67
2023-04-09T18:38:57.831Z,30.87
2023-04-09T18:41:26.138Z,28.23
2023-04-09T18:43:54.230Z,27.40
2023-04-09T18:46:22.827Z,26.40
2023-04-09T18:48:50.504Z,23.80
2023-04-09T18:51:20.850Z,22.43
2023-04-09T18:53:52.864Z,21.40
2023-04-09T18:56:21.080Z,19.60
2023-04-09T18:58:48.763Z,19.53
2023-04-09T19:01:17.499Z,17.27
2023-04-09T19:03:45.959Z,17.50
2023-04-09T19:06:14.622Z,16.27
2023-04-09T19:08:43.679Z,15.13
2023-04-09T19:11:12.553Z,15.27
2023-04-09T19:13:40.455Z,15.03
2023-04-09T19:16:09.041Z,14.10
2023-04-09T19:18:38.572Z,13.07
2023-04-09T19:21:07.994Z,13.47
2023-04-09T19:23:35.642Z,12.47
2023-04-09T19:26:05.468Z,13.37
2023-04-09T19:28:33.162Z,13.10
2023-04-09T19:31:02.851Z,13.90
2023-04-09T19:33:31.728Z,15.50
2023-04-09T19:35:59.378Z,15.23
2023-04-09T19:38:27.143Z,14.77
2023-04-09T19:40:54.727Z,14.63
2023-04-09T19:43:23.779Z,13.13
2023-04-09T19:45:51.374Z,12.47
2023-04-09T19:48:19.003Z,11.90
2023-04-09T19:50:48.329Z,11.20
2023-04-09T19:53:16.387Z,10.43
2023-04-09T19:55:44.642Z,10.37
2023-04-09T19:58:12.255Z,10.67
2023-04-09T20:00:41.244Z,9.73
2023-04-09T20:03:09.288Z,8.97
2023-04-09T20:05:37.114Z,8.60
2023-04-09T20:08:04.999Z,7.83
2023-04-09T20:10:32.708Z,7.63
2023-04-09T20:13:01.594Z,8.00
2023-04-09T20:15:29.411Z,7.40
2023-04-09T20:17:58.348Z,7.40
2023-04-09T20:20:26.203Z,6.90
2023-04-09T20:22:56.312Z,6.57
2023-04-09T20:25:24.594Z,6.00
2023-04-09T20:27:53.974Z,6.20
2023-04-09T20:30:22.550Z,6.67
2023-04-09T20:32:50.262Z,6.20
2023-04-09T20:35:19.389Z,5.97
2023-04-09T20:37:48.389Z,5.30
2023-04-09T20:40:16.419Z,5.73
2023-04-09T20:42:44.786Z,6.20
2023-04-09T20:45:12.692Z,7.07
2023-04-09T20:47:40.936Z,6.57
2023-04-09T20:50:09.334Z,6.27
2023-04-09T20:52:38.387Z,7.43
2023-04-09T20:55:07.393Z,7.10
2023-04-09T20:57:34.976Z,8.20
2023-04-09T21:00:02.940Z,8.50
2023-04-09T21:02:31.094Z,10.07
2023-04-09T21:05:05.541Z,9.43
2023-04-09T21:07:44.219Z,10.70
2023-04-09T21:10:11.911Z,11.03
2023-04-09T21:12:39.588Z,10.50
2023-04-09T21:15:08.265Z,10.67
2023-04-09T21:17:36.050Z,10.60
2023-04-09T21:20:04.486Z,10.33
2023-04-09T21:22:32.139Z,10.20
2023-04-09T21:25:01.087Z,9.73
2023-04-09T21:27:28.662Z,8.77
2023-04-09T21:29:56.289Z,9.23
2023-04-09T21:32:24.985Z,8.17
2023-04-09T21:34:52.694Z,7.67
2023-04-09T21:37:20.359Z,8.00
2023-04-09T21:39:48.886Z,7.27
2023-04-09T21:42:17.865Z,8.07
2023-04-09T21:44:45.453Z,7.03
2023-04-09T21:47:13.092Z,7.23
2023-04-09T21:49:40.828Z,6.33
2023-04-09T21:52:14.169Z,6.93
2023-04-09T21:54:42.278Z,5.93
2023-04-09T21:57:10.025Z,5.83
2023-04-09T21:59:41.088Z,5.63
2023-04-09T22:02:10.031Z,5.90
2023-04-09T22:04:37.963Z,5.33
2023-04-09T22:07:05.673Z,5.50
2023-04-09T22:09:33.253Z,5.20
2023-04-09T22:12:02.618Z,5.47
2023-04-09T22:14:30.616Z,5.43
2023-04-09T22:17:01.666Z,4.93
2023-04-09T22:19:31.301Z,5.43
2023-04-09T22:21:59.603Z,5.07
2023-04-09T22:24:29.093Z,5.03
2023-04-09T22:26:58.634Z,5.20
2023-04-09T22:29:26.599Z,5.07
2023-04-09T22:31:54.326Z,5.50
2023-04-09T22:34:23.336Z,4.80
2023-04-09T22:36:51.067Z,4.93
2023-04-09T22:39:18.814Z,5.30
2023-04-09T22:41:46.418Z,5.13
2023-04-09T22:44:14.030Z,5.10
2023-04-09T22:46:42.132Z,5.50
2023-04-09T22:49:09.839Z,5.83
2023-04-09T22:51:41.380Z,6.80
2023-04-09T22:54:09.484Z,7.30
2023-04-09T22:56:37.635Z,9.20
2023-04-09T22:59:06.079Z,9.10
2023-04-09T23:01:33.996Z,8.60
2023-04-09T23:04:01.862Z,8.90
2023-04-09T23:06:30.921Z,8.00
2023-04-09T23:09:00.401Z,8.83
2023-04-09T23:11:28.229Z,8.63
2023-04-09T23:13:55.960Z,9.33
2023-04-09T23:16:23.837Z,8.93
2023-04-09T23:18:51.570Z,8.67
2023-04-09T23:21:19.261Z,8.87
2023-04-09T23:23:46.821Z,8.53
2023-04-09T23:26:15.745Z,8.93
2023-04-09T23:28:43.323Z,8.73
2023-04-09T23:31:11.422Z,8.43
2023-04-09T23:33:39.053Z,7.93
2023-04-09T23:36:07.368Z,7.97
2023-04-09T23:38:34.974Z,8.13
2023-04-09T23:41:02.590Z,7.40
2023-04-09T23:43:31.500Z,8.23
2023-04-09T23:45:59.123Z,7.60
2023-04-09T23:48:26.687Z,7.37
2023-04-09T23:50:54.264Z,7.30
2023-04-09T23:53:21.843Z,6.83
2023-04-09T23:55:50.149Z,6.73
2023-04-09T23:58:18.844Z,6.50
